AAL514 KSAN-KSAT
Flight info
| Callsign | AAL514 |
|---|---|
| Flight time | 2h 21m |
| Altitude | 35000 |
| Route | ZZOOO4 GBN SKTTR Q4 ELP J86 FST J138 SHUCK MOPPP DNKIN2 |
| Aircraft | A321/M-SDE3FGHIRWY/LB1 |
Departure
| Time | 2026-05-06 19:17 |
|---|---|
| Airport | San Diego International Airport (KSAN) |
Arrival
| Time | 2026-05-06 21:38 |
|---|---|
| Airport | San Antonio International Airport (KSAT) |
| Time | Latitude | Longitude | Altitude | Speed | Heading |
|---|---|---|---|---|---|
| 2026-05-06 17:58 | 32.73378 | -117.20206 | 21 ft | 0 kts | 141° |
| 2026-05-06 19:07 | 32.73383 | -117.20211 | 21 ft | 4 kts | 141° |
| 2026-05-06 19:07 | 32.73403 | -117.20232 | 24 ft | 4 kts | 133° |
| 2026-05-06 19:08 | 32.73418 | -117.20256 | 22 ft | 4 kts | 100° |
| 2026-05-06 19:08 | 32.73419 | -117.20270 | 23 ft | 2 kts | 19° |
| 2026-05-06 19:08 | 32.73417 | -117.20271 | 23 ft | 0 kts | 17° |
| 2026-05-06 19:12 | 32.73421 | -117.20270 | 22 ft | 1 kts | 17° |
| 2026-05-06 19:12 | 32.73447 | -117.20261 | 21 ft | 7 kts | 16° |
| 2026-05-06 19:12 | 32.73508 | -117.20240 | 22 ft | 11 kts | 15° |
| 2026-05-06 19:12 | 32.73543 | -117.20157 | 23 ft | 15 kts | 103° |
| 2026-05-06 19:13 | 32.73508 | -117.20014 | 22 ft | 21 kts | 106° |
| 2026-05-06 19:13 | 32.73466 | -117.19834 | 24 ft | 25 kts | 105° |
| 2026-05-06 19:13 | 32.73417 | -117.19624 | 23 ft | 27 kts | 107° |
| 2026-05-06 19:13 | 32.73363 | -117.19412 | 22 ft | 27 kts | 107° |
| 2026-05-06 19:14 | 32.73309 | -117.19193 | 21 ft | 28 kts | 105° |
| 2026-05-06 19:14 | 32.73259 | -117.18977 | 24 ft | 27 kts | 105° |
| 2026-05-06 19:14 | 32.73207 | -117.18768 | 25 ft | 26 kts | 108° |
| 2026-05-06 19:14 | 32.73156 | -117.18561 | 22 ft | 27 kts | 106° |
| 2026-05-06 19:15 | 32.73105 | -117.18344 | 21 ft | 27 kts | 105° |
| 2026-05-06 19:15 | 32.73052 | -117.18125 | 18 ft | 28 kts | 106° |
| 2026-05-06 19:15 | 32.73002 | -117.17920 | 17 ft | 21 kts | 106° |
| 2026-05-06 19:15 | 32.72964 | -117.17763 | 16 ft | 17 kts | 105° |
| 2026-05-06 19:16 | 32.72951 | -117.17663 | 18 ft | 10 kts | 82° |
| 2026-05-06 19:16 | 32.72978 | -117.17596 | 21 ft | 8 kts | 46° |
| 2026-05-06 19:16 | 32.73032 | -117.17637 | 20 ft | 18 kts | 290° |
| 2026-05-06 19:16 | 32.73133 | -117.18047 | 18 ft | 91 kts | 286° |
| 2026-05-06 19:17 | 32.73373 | -117.19033 | 25 ft | 155 kts | 286° |
| 2026-05-06 19:17 | 32.73704 | -117.20356 | 633 ft | 166 kts | 287° |
| 2026-05-06 19:17 | 32.74045 | -117.21685 | 1501 ft | 172 kts | 287° |
| 2026-05-06 19:17 | 32.74405 | -117.23048 | 2306 ft | 176 kts | 288° |
| 2026-05-06 19:18 | 32.74823 | -117.24584 | 2345 ft | 218 kts | 288° |
| 2026-05-06 19:18 | 32.75315 | -117.26370 | 2893 ft | 233 kts | 289° |
| 2026-05-06 19:18 | 32.75790 | -117.28258 | 3383 ft | 244 kts | 286° |
| 2026-05-06 19:18 | 32.76182 | -117.30194 | 4073 ft | 241 kts | 285° |
| 2026-05-06 19:19 | 32.76575 | -117.32137 | 4742 ft | 244 kts | 281° |
| 2026-05-06 19:19 | 32.76539 | -117.34154 | 5385 ft | 248 kts | 256° |
| 2026-05-06 19:19 | 32.75794 | -117.36034 | 5845 ft | 261 kts | 232° |
| 2026-05-06 19:19 | 32.74402 | -117.37482 | 6269 ft | 273 kts | 208° |
| 2026-05-06 19:20 | 32.72586 | -117.38192 | 6749 ft | 278 kts | 183° |
| 2026-05-06 19:20 | 32.70716 | -117.37987 | 7586 ft | 262 kts | 159° |
| 2026-05-06 19:20 | 32.69122 | -117.37019 | 8137 ft | 266 kts | 140° |
| 2026-05-06 19:20 | 32.67711 | -117.35536 | 8513 ft | 273 kts | 130° |
| 2026-05-06 19:21 | 32.66503 | -117.33872 | 9407 ft | 261 kts | 123° |
| 2026-05-06 19:21 | 32.65499 | -117.32094 | 10087 ft | 258 kts | 115° |
| 2026-05-06 19:21 | 32.64716 | -117.30175 | 10566 ft | 263 kts | 109° |
| 2026-05-06 19:21 | 32.63978 | -117.28142 | 10924 ft | 272 kts | 109° |
| 2026-05-06 19:22 | 32.63240 | -117.26051 | 11429 ft | 276 kts | 108° |
| 2026-05-06 19:22 | 32.62661 | -117.23904 | 12079 ft | 270 kts | 96° |
| 2026-05-06 19:22 | 32.62437 | -117.21653 | 12321 ft | 285 kts | 91° |
| 2026-05-06 19:22 | 32.62217 | -117.19265 | 12448 ft | 305 kts | 94° |
| 2026-05-06 19:23 | 32.61909 | -117.16700 | 12640 ft | 322 kts | 95° |
| 2026-05-06 19:23 | 32.61608 | -117.14042 | 13040 ft | 328 kts | 90° |
| 2026-05-06 19:23 | 32.61609 | -117.11315 | 13472 ft | 332 kts | 80° |
| 2026-05-06 19:23 | 32.62113 | -117.08683 | 14043 ft | 332 kts | 68° |
| 2026-05-06 19:24 | 32.63064 | -117.06077 | 13826 ft | 355 kts | 63° |
| 2026-05-06 19:24 | 32.64074 | -117.03455 | 14697 ft | 344 kts | 63° |
| 2026-05-06 19:24 | 32.65049 | -117.00861 | 15183 ft | 351 kts | 65° |
| 2026-05-06 19:24 | 32.65948 | -116.98165 | 15468 ft | 361 kts | 68° |
| 2026-05-06 19:25 | 32.66718 | -116.95337 | 16035 ft | 363 kts | 74° |
| 2026-05-06 19:25 | 32.66904 | -116.92301 | 16402 ft | 373 kts | 93° |
| 2026-05-06 19:25 | 32.66628 | -116.89266 | 17209 ft | 369 kts | 91° |
| 2026-05-06 19:25 | 32.66543 | -116.86208 | 17542 ft | 376 kts | 86° |
| 2026-05-06 19:26 | 32.66641 | -116.83106 | 18093 ft | 373 kts | 83° |
| 2026-05-06 19:26 | 32.66838 | -116.80200 | 19318 ft | 352 kts | 81° |
| 2026-05-06 19:26 | 32.67063 | -116.77226 | 19302 ft | 369 kts | 83° |
| 2026-05-06 19:26 | 32.67204 | -116.74147 | 19550 ft | 378 kts | 85° |
| 2026-05-06 19:27 | 32.67219 | -116.71054 | 19953 ft | 382 kts | 87° |
| 2026-05-06 19:27 | 32.67149 | -116.67888 | 20400 ft | 385 kts | 88° |
| 2026-05-06 19:27 | 32.67043 | -116.64706 | 20851 ft | 387 kts | 88° |
| 2026-05-06 19:27 | 32.66939 | -116.61504 | 21282 ft | 389 kts | 88° |
| 2026-05-06 19:28 | 32.66852 | -116.58288 | 21734 ft | 391 kts | 88° |
| 2026-05-06 19:28 | 32.66783 | -116.55052 | 22178 ft | 393 kts | 87° |
| 2026-05-06 19:28 | 32.66725 | -116.51809 | 22579 ft | 394 kts | 87° |
| 2026-05-06 19:28 | 32.66672 | -116.48549 | 22957 ft | 397 kts | 87° |
| 2026-05-06 19:29 | 32.66619 | -116.45308 | 23326 ft | 399 kts | 87° |
| 2026-05-06 19:29 | 32.66627 | -116.42010 | 23710 ft | 399 kts | 82° |
| 2026-05-06 19:29 | 32.66916 | -116.38739 | 24037 ft | 399 kts | 79° |
| 2026-05-06 19:29 | 32.67222 | -116.35461 | 24373 ft | 401 kts | 79° |
| 2026-05-06 19:30 | 32.67529 | -116.32169 | 24714 ft | 402 kts | 80° |
| 2026-05-06 19:30 | 32.67832 | -116.28867 | 25061 ft | 403 kts | 80° |
| 2026-05-06 19:30 | 32.68131 | -116.25555 | 25406 ft | 404 kts | 80° |
| 2026-05-06 19:30 | 32.68429 | -116.22238 | 25742 ft | 405 kts | 80° |
| 2026-05-06 19:31 | 32.68722 | -116.18958 | 26076 ft | 406 kts | 80° |
| 2026-05-06 19:31 | 32.69017 | -116.15623 | 26404 ft | 407 kts | 80° |
| 2026-05-06 19:31 | 32.69607 | -116.08914 | 27072 ft | 410 kts | 80° |
| 2026-05-06 19:32 | 32.69904 | -116.05551 | 27391 ft | 411 kts | 80° |
| 2026-05-06 19:32 | 32.70203 | -116.02174 | 27706 ft | 412 kts | 80° |
| 2026-05-06 19:32 | 32.70512 | -115.98789 | 28000 ft | 413 kts | 80° |
| 2026-05-06 19:32 | 32.70826 | -115.95440 | 28296 ft | 414 kts | 79° |
| 2026-05-06 19:33 | 32.71148 | -115.92033 | 28574 ft | 416 kts | 79° |
| 2026-05-06 19:33 | 32.71469 | -115.88617 | 28846 ft | 417 kts | 80° |
| 2026-05-06 19:33 | 32.71790 | -115.85192 | 29107 ft | 419 kts | 80° |
| 2026-05-06 19:33 | 32.72109 | -115.81744 | 29397 ft | 420 kts | 80° |
| 2026-05-06 19:34 | 32.72424 | -115.78293 | 29673 ft | 422 kts | 80° |
| 2026-05-06 19:34 | 32.72739 | -115.74821 | 29947 ft | 423 kts | 80° |
| 2026-05-06 19:34 | 32.73054 | -115.71344 | 30275 ft | 423 kts | 80° |
| 2026-05-06 19:34 | 32.73362 | -115.67921 | 30580 ft | 422 kts | 80° |
| 2026-05-06 19:35 | 32.73674 | -115.64452 | 30859 ft | 422 kts | 80° |
| 2026-05-06 19:35 | 32.73986 | -115.60985 | 31131 ft | 423 kts | 80° |
| 2026-05-06 19:35 | 32.74298 | -115.57512 | 31375 ft | 423 kts | 80° |
| 2026-05-06 19:35 | 32.74609 | -115.54033 | 31629 ft | 424 kts | 80° |
| 2026-05-06 19:36 | 32.74911 | -115.50552 | 31891 ft | 425 kts | 81° |
| 2026-05-06 19:36 | 32.75117 | -115.47046 | 32141 ft | 426 kts | 83° |
| 2026-05-06 19:36 | 32.75225 | -115.43526 | 32385 ft | 427 kts | 85° |
| 2026-05-06 19:36 | 32.75272 | -115.40039 | 32636 ft | 428 kts | 86° |
| 2026-05-06 19:37 | 32.75300 | -115.36501 | 32886 ft | 429 kts | 86° |
| 2026-05-06 19:37 | 32.75336 | -115.32959 | 33128 ft | 429 kts | 86° |
| 2026-05-06 19:37 | 32.75388 | -115.29417 | 33354 ft | 430 kts | 85° |
| 2026-05-06 19:37 | 32.75432 | -115.27067 | 33505 ft | 430 kts | 85° |
| 2026-05-06 19:38 | 32.75537 | -115.22314 | 33799 ft | 431 kts | 85° |
| 2026-05-06 19:38 | 32.75624 | -115.18758 | 34023 ft | 431 kts | 85° |
| 2026-05-06 19:38 | 32.75713 | -115.15190 | 34199 ft | 432 kts | 85° |
| 2026-05-06 19:38 | 32.75799 | -115.11621 | 34358 ft | 433 kts | 85° |
| 2026-05-06 19:39 | 32.75883 | -115.08084 | 34507 ft | 435 kts | 86° |
| 2026-05-06 19:39 | 32.75962 | -115.04490 | 34653 ft | 436 kts | 86° |
| 2026-05-06 19:39 | 32.76037 | -115.00888 | 34798 ft | 437 kts | 86° |
| 2026-05-06 19:39 | 32.76111 | -114.97277 | 34963 ft | 438 kts | 86° |
| 2026-05-06 19:40 | 32.76257 | -114.90018 | 35067 ft | 441 kts | 86° |
| 2026-05-06 19:40 | 32.76399 | -114.82722 | 35066 ft | 442 kts | 87° |
| 2026-05-06 19:41 | 32.76532 | -114.75458 | 35064 ft | 443 kts | 87° |
| 2026-05-06 19:41 | 32.76671 | -114.68131 | 35065 ft | 444 kts | 87° |
| 2026-05-06 19:42 | 32.76809 | -114.60791 | 35074 ft | 445 kts | 88° |
| 2026-05-06 19:42 | 32.76925 | -114.53425 | 35070 ft | 446 kts | 88° |
| 2026-05-06 19:43 | 32.77020 | -114.46101 | 35053 ft | 447 kts | 88° |
| 2026-05-06 19:43 | 32.77109 | -114.38714 | 35057 ft | 448 kts | 88° |
| 2026-05-06 19:44 | 32.77202 | -114.31305 | 35049 ft | 449 kts | 88° |
| 2026-05-06 19:44 | 32.77294 | -114.23878 | 35045 ft | 450 kts | 89° |
| 2026-05-06 19:45 | 32.77383 | -114.16438 | 35031 ft | 451 kts | 89° |
| 2026-05-06 19:45 | 32.77468 | -114.09025 | 35026 ft | 452 kts | 89° |
| 2026-05-06 19:46 | 32.77544 | -114.01550 | 35014 ft | 453 kts | 89° |
| 2026-05-06 19:46 | 32.78027 | -113.94092 | 35010 ft | 454 kts | 80° |
| 2026-05-06 19:47 | 32.79107 | -113.86689 | 35008 ft | 455 kts | 80° |
| 2026-05-06 19:47 | 32.80162 | -113.79306 | 35011 ft | 457 kts | 80° |
| 2026-05-06 19:48 | 32.81220 | -113.71848 | 35011 ft | 458 kts | 81° |
| 2026-05-06 19:48 | 32.82277 | -113.64358 | 35004 ft | 460 kts | 81° |
| 2026-05-06 19:49 | 32.83346 | -113.56842 | 35011 ft | 462 kts | 81° |
| 2026-05-06 19:49 | 32.84415 | -113.49298 | 35012 ft | 464 kts | 81° |
| 2026-05-06 19:50 | 32.85464 | -113.41774 | 35022 ft | 465 kts | 81° |
| 2026-05-06 19:50 | 32.86521 | -113.34174 | 35024 ft | 466 kts | 81° |
| 2026-05-06 19:51 | 32.87578 | -113.26560 | 35034 ft | 467 kts | 81° |
| 2026-05-06 19:51 | 32.88638 | -113.18936 | 35028 ft | 467 kts | 81° |
| 2026-05-06 19:52 | 32.89684 | -113.11348 | 35036 ft | 468 kts | 81° |
| 2026-05-06 19:52 | 32.90727 | -113.03687 | 35037 ft | 470 kts | 82° |
| 2026-05-06 19:53 | 32.91773 | -112.95991 | 35044 ft | 472 kts | 82° |
| 2026-05-06 19:53 | 32.92824 | -112.88261 | 35052 ft | 474 kts | 82° |
| 2026-05-06 19:54 | 32.93868 | -112.80551 | 35063 ft | 476 kts | 82° |
| 2026-05-06 19:54 | 32.94912 | -112.72757 | 35061 ft | 477 kts | 83° |
| 2026-05-06 19:55 | 32.94925 | -112.64914 | 35058 ft | 473 kts | 101° |
| 2026-05-06 19:55 | 32.93377 | -112.57328 | 35055 ft | 473 kts | 108° |
| 2026-05-06 19:56 | 32.91708 | -112.49801 | 35049 ft | 474 kts | 108° |
| 2026-05-06 19:56 | 32.90012 | -112.42200 | 35037 ft | 476 kts | 108° |
| 2026-05-06 19:57 | 32.88307 | -112.34591 | 35026 ft | 477 kts | 108° |
| 2026-05-06 19:57 | 32.86594 | -112.26962 | 35015 ft | 478 kts | 108° |
| 2026-05-06 19:58 | 32.84875 | -112.19325 | 35015 ft | 479 kts | 109° |
| 2026-05-06 19:58 | 32.83156 | -112.11728 | 35014 ft | 479 kts | 109° |
| 2026-05-06 19:59 | 32.81423 | -112.04065 | 35011 ft | 480 kts | 109° |
| 2026-05-06 19:59 | 32.79681 | -111.96390 | 35007 ft | 481 kts | 109° |
| 2026-05-06 20:00 | 32.77924 | -111.88703 | 35002 ft | 483 kts | 110° |
| 2026-05-06 20:00 | 32.76170 | -111.81047 | 35006 ft | 484 kts | 110° |
| 2026-05-06 20:01 | 32.74400 | -111.73325 | 35006 ft | 485 kts | 110° |
| 2026-05-06 20:01 | 32.72623 | -111.65583 | 34996 ft | 487 kts | 110° |
| 2026-05-06 20:02 | 32.70831 | -111.57818 | 35017 ft | 488 kts | 111° |
| 2026-05-06 20:02 | 32.69025 | -111.50024 | 35035 ft | 490 kts | 111° |
| 2026-05-06 20:03 | 32.67203 | -111.42217 | 35040 ft | 492 kts | 112° |
| 2026-05-06 20:03 | 32.65385 | -111.34429 | 35052 ft | 494 kts | 112° |
| 2026-05-06 20:04 | 32.63554 | -111.26574 | 35057 ft | 495 kts | 112° |
| 2026-05-06 20:04 | 32.61713 | -111.18687 | 35055 ft | 496 kts | 113° |
| 2026-05-06 20:05 | 32.59857 | -111.10796 | 35063 ft | 497 kts | 113° |
| 2026-05-06 20:05 | 32.58000 | -111.02942 | 35050 ft | 499 kts | 114° |
| 2026-05-06 20:06 | 32.56123 | -110.95015 | 35055 ft | 500 kts | 114° |
| 2026-05-06 20:06 | 32.54236 | -110.87066 | 35060 ft | 502 kts | 114° |
| 2026-05-06 20:07 | 32.52337 | -110.79096 | 35061 ft | 503 kts | 115° |
| 2026-05-06 20:07 | 32.50450 | -110.71168 | 35051 ft | 504 kts | 115° |
| 2026-05-06 20:08 | 32.48534 | -110.63165 | 35056 ft | 506 kts | 115° |
| 2026-05-06 20:08 | 32.46602 | -110.55149 | 35051 ft | 507 kts | 115° |
| 2026-05-06 20:09 | 32.44661 | -110.47122 | 35049 ft | 508 kts | 116° |
| 2026-05-06 20:09 | 32.42727 | -110.39134 | 35041 ft | 509 kts | 115° |
| 2026-05-06 20:10 | 32.40779 | -110.31080 | 35036 ft | 509 kts | 116° |
| 2026-05-06 20:10 | 32.38827 | -110.23022 | 35031 ft | 510 kts | 117° |
| 2026-05-06 20:11 | 32.36860 | -110.14953 | 35024 ft | 511 kts | 116° |
| 2026-05-06 20:11 | 32.34890 | -110.06940 | 35006 ft | 510 kts | 116° |
| 2026-05-06 20:12 | 32.32914 | -109.98872 | 35001 ft | 512 kts | 116° |
| 2026-05-06 20:12 | 32.30926 | -109.90792 | 34995 ft | 512 kts | 116° |
| 2026-05-06 20:13 | 32.29147 | -109.82591 | 34998 ft | 525 kts | 107° |
| 2026-05-06 20:13 | 32.28143 | -109.74092 | 34987 ft | 526 kts | 107° |
| 2026-05-06 20:14 | 32.27106 | -109.65517 | 34977 ft | 527 kts | 107° |
| 2026-05-06 20:14 | 32.26061 | -109.56940 | 34981 ft | 527 kts | 107° |
| 2026-05-06 20:15 | 32.25010 | -109.48373 | 34974 ft | 527 kts | 107° |
| 2026-05-06 20:15 | 32.23966 | -109.39861 | 34970 ft | 528 kts | 107° |
| 2026-05-06 20:16 | 32.22904 | -109.31287 | 34969 ft | 528 kts | 107° |
| 2026-05-06 20:16 | 32.21841 | -109.22708 | 34969 ft | 528 kts | 107° |
| 2026-05-06 20:17 | 32.20767 | -109.14119 | 34970 ft | 529 kts | 107° |
| 2026-05-06 20:17 | 32.19687 | -109.05531 | 34981 ft | 529 kts | 107° |
| 2026-05-06 20:18 | 32.18612 | -108.96986 | 35015 ft | 530 kts | 107° |
| 2026-05-06 20:18 | 32.17517 | -108.88387 | 35047 ft | 530 kts | 107° |
| 2026-05-06 20:19 | 32.16416 | -108.79782 | 35064 ft | 531 kts | 107° |
| 2026-05-06 20:19 | 32.15310 | -108.71173 | 35068 ft | 531 kts | 107° |
| 2026-05-06 20:20 | 32.14209 | -108.62617 | 35057 ft | 531 kts | 107° |
| 2026-05-06 20:20 | 32.13093 | -108.54002 | 35030 ft | 531 kts | 107° |
| 2026-05-06 20:21 | 32.11974 | -108.45392 | 35001 ft | 531 kts | 107° |
| 2026-05-06 20:21 | 32.10851 | -108.36843 | 34960 ft | 531 kts | 108° |
| 2026-05-06 20:22 | 32.09710 | -108.28240 | 34960 ft | 531 kts | 107° |
| 2026-05-06 20:22 | 32.08569 | -108.19643 | 34953 ft | 531 kts | 107° |
| 2026-05-06 20:23 | 32.07428 | -108.11052 | 34939 ft | 530 kts | 108° |
| 2026-05-06 20:23 | 32.06274 | -108.02458 | 34957 ft | 530 kts | 108° |
| 2026-05-06 20:24 | 32.05121 | -107.93933 | 34980 ft | 530 kts | 108° |
| 2026-05-06 20:24 | 32.03960 | -107.85359 | 34995 ft | 530 kts | 108° |
| 2026-05-06 20:25 | 32.02798 | -107.76783 | 35001 ft | 530 kts | 108° |
| 2026-05-06 20:25 | 32.01630 | -107.68261 | 34988 ft | 530 kts | 108° |
| 2026-05-06 20:26 | 32.00447 | -107.59686 | 34964 ft | 530 kts | 108° |
| 2026-05-06 20:26 | 31.99259 | -107.51113 | 34934 ft | 530 kts | 108° |
| 2026-05-06 20:27 | 31.98067 | -107.42537 | 34902 ft | 531 kts | 108° |
| 2026-05-06 20:27 | 31.96881 | -107.34012 | 34902 ft | 531 kts | 108° |
| 2026-05-06 20:28 | 31.95676 | -107.25424 | 34896 ft | 531 kts | 108° |
| 2026-05-06 20:28 | 31.94461 | -107.16844 | 34892 ft | 531 kts | 108° |
| 2026-05-06 20:29 | 31.93243 | -107.08268 | 34915 ft | 531 kts | 108° |
| 2026-05-06 20:29 | 31.92026 | -106.99696 | 34968 ft | 531 kts | 108° |
| 2026-05-06 20:30 | 31.90194 | -106.86883 | 35050 ft | 531 kts | 109° |
| 2026-05-06 20:31 | 31.88950 | -106.78313 | 35096 ft | 531 kts | 109° |
| 2026-05-06 20:31 | 31.87702 | -106.69751 | 35097 ft | 531 kts | 109° |
| 2026-05-06 20:32 | 31.86450 | -106.61178 | 35098 ft | 532 kts | 109° |
| 2026-05-06 20:32 | 31.85202 | -106.52662 | 35055 ft | 532 kts | 109° |
| 2026-05-06 20:33 | 31.83946 | -106.44092 | 35070 ft | 532 kts | 109° |
| 2026-05-06 20:33 | 31.82678 | -106.35515 | 35074 ft | 533 kts | 109° |
| 2026-05-06 20:34 | 31.81295 | -106.26983 | 35064 ft | 525 kts | 116° |
| 2026-05-06 20:34 | 31.79279 | -106.18773 | 35014 ft | 523 kts | 116° |
| 2026-05-06 20:35 | 31.77252 | -106.10613 | 34963 ft | 524 kts | 116° |
| 2026-05-06 20:35 | 31.75208 | -106.02393 | 34913 ft | 525 kts | 116° |
| 2026-05-06 20:36 | 31.73163 | -105.94162 | 34889 ft | 525 kts | 116° |
| 2026-05-06 20:36 | 31.71113 | -105.85929 | 34883 ft | 525 kts | 117° |
| 2026-05-06 20:37 | 31.69044 | -105.77709 | 34889 ft | 525 kts | 117° |
| 2026-05-06 20:37 | 31.66993 | -105.69550 | 34890 ft | 525 kts | 117° |
| 2026-05-06 20:38 | 31.64932 | -105.61337 | 34896 ft | 525 kts | 117° |
| 2026-05-06 20:38 | 31.62868 | -105.53127 | 34902 ft | 524 kts | 117° |
| 2026-05-06 20:39 | 31.60795 | -105.44927 | 34898 ft | 524 kts | 117° |
| 2026-05-06 20:39 | 31.58720 | -105.36795 | 34901 ft | 524 kts | 117° |
| 2026-05-06 20:40 | 31.56634 | -105.28607 | 34896 ft | 524 kts | 117° |
| 2026-05-06 20:40 | 31.54546 | -105.20427 | 34901 ft | 524 kts | 117° |
| 2026-05-06 20:41 | 31.52453 | -105.12249 | 34901 ft | 524 kts | 117° |
| 2026-05-06 20:41 | 31.50351 | -105.04082 | 34905 ft | 523 kts | 117° |
| 2026-05-06 20:42 | 31.48257 | -104.95972 | 34911 ft | 523 kts | 117° |
| 2026-05-06 20:42 | 31.46157 | -104.87827 | 34919 ft | 522 kts | 118° |
| 2026-05-06 20:43 | 31.44042 | -104.79689 | 34920 ft | 523 kts | 117° |
| 2026-05-06 20:43 | 31.41922 | -104.71544 | 34916 ft | 523 kts | 117° |
| 2026-05-06 20:44 | 31.39815 | -104.63459 | 34923 ft | 523 kts | 117° |
| 2026-05-06 20:44 | 31.37686 | -104.55322 | 34917 ft | 522 kts | 117° |
| 2026-05-06 20:45 | 31.35555 | -104.47198 | 34915 ft | 522 kts | 117° |
| 2026-05-06 20:45 | 31.33415 | -104.39079 | 34914 ft | 522 kts | 118° |
| 2026-05-06 20:46 | 31.31287 | -104.31020 | 34898 ft | 522 kts | 118° |
| 2026-05-06 20:46 | 31.29144 | -104.22914 | 34896 ft | 522 kts | 118° |
| 2026-05-06 20:47 | 31.26993 | -104.14802 | 34897 ft | 522 kts | 118° |
| 2026-05-06 20:47 | 31.24840 | -104.06699 | 34901 ft | 522 kts | 118° |
| 2026-05-06 20:48 | 31.23044 | -103.99966 | 34897 ft | 522 kts | 118° |
| 2026-05-06 20:48 | 31.20519 | -103.90554 | 34887 ft | 523 kts | 118° |
| 2026-05-06 20:49 | 31.18345 | -103.82449 | 34889 ft | 523 kts | 118° |
| 2026-05-06 20:49 | 31.16537 | -103.75714 | 34899 ft | 523 kts | 118° |
| 2026-05-06 20:50 | 31.14355 | -103.67604 | 34896 ft | 524 kts | 118° |
| 2026-05-06 20:50 | 31.12169 | -103.59501 | 34891 ft | 524 kts | 118° |
| 2026-05-06 20:51 | 31.09967 | -103.51399 | 34885 ft | 524 kts | 118° |
| 2026-05-06 20:51 | 31.07776 | -103.43348 | 34871 ft | 524 kts | 118° |
| 2026-05-06 20:52 | 31.05565 | -103.35248 | 34858 ft | 524 kts | 118° |
| 2026-05-06 20:52 | 31.03348 | -103.27144 | 34874 ft | 525 kts | 118° |
| 2026-05-06 20:53 | 31.01125 | -103.19041 | 34926 ft | 525 kts | 118° |
| 2026-05-06 20:53 | 30.98913 | -103.10997 | 34975 ft | 525 kts | 118° |
| 2026-05-06 20:54 | 30.96685 | -103.02897 | 35019 ft | 524 kts | 118° |
| 2026-05-06 20:54 | 30.94452 | -102.94816 | 35028 ft | 525 kts | 117° |
| 2026-05-06 20:55 | 30.92333 | -102.86663 | 35036 ft | 526 kts | 116° |
| 2026-05-06 20:55 | 30.90284 | -102.78482 | 35031 ft | 526 kts | 116° |
| 2026-05-06 20:56 | 30.88223 | -102.70381 | 34988 ft | 525 kts | 117° |
| 2026-05-06 20:56 | 30.86106 | -102.62255 | 34952 ft | 525 kts | 117° |
| 2026-05-06 20:57 | 30.83976 | -102.54133 | 34923 ft | 525 kts | 117° |
| 2026-05-06 20:57 | 30.81846 | -102.46009 | 34885 ft | 525 kts | 117° |
| 2026-05-06 20:58 | 30.79718 | -102.37884 | 34885 ft | 525 kts | 117° |
| 2026-05-06 20:58 | 30.77611 | -102.29813 | 34884 ft | 525 kts | 117° |
| 2026-05-06 20:59 | 30.75476 | -102.21696 | 34882 ft | 525 kts | 117° |
| 2026-05-06 20:59 | 30.73340 | -102.13589 | 34886 ft | 524 kts | 117° |
| 2026-05-06 21:00 | 30.71199 | -102.05488 | 34890 ft | 524 kts | 117° |
| 2026-05-06 21:00 | 30.69071 | -101.97453 | 34888 ft | 524 kts | 117° |
| 2026-05-06 21:01 | 30.66917 | -101.89379 | 34901 ft | 524 kts | 117° |
| 2026-05-06 21:01 | 30.64751 | -101.81299 | 34889 ft | 524 kts | 117° |
| 2026-05-06 21:02 | 30.62591 | -101.73229 | 34891 ft | 524 kts | 117° |
| 2026-05-06 21:02 | 30.60441 | -101.65212 | 34915 ft | 523 kts | 117° |
| 2026-05-06 21:03 | 30.58268 | -101.57151 | 34922 ft | 523 kts | 117° |
| 2026-05-06 21:03 | 30.56094 | -101.49097 | 34947 ft | 523 kts | 117° |
| 2026-05-06 21:04 | 30.53917 | -101.41048 | 34967 ft | 523 kts | 117° |
| 2026-05-06 21:04 | 30.51734 | -101.33000 | 34978 ft | 523 kts | 117° |
| 2026-05-06 21:05 | 30.49593 | -101.25007 | 34979 ft | 524 kts | 116° |
| 2026-05-06 21:05 | 30.47547 | -101.16892 | 34974 ft | 525 kts | 115° |
| 2026-05-06 21:06 | 30.45543 | -101.08758 | 34958 ft | 525 kts | 115° |
| 2026-05-06 21:06 | 30.43507 | -101.00647 | 34938 ft | 524 kts | 115° |
| 2026-05-06 21:07 | 30.41447 | -100.92608 | 34962 ft | 524 kts | 115° |
| 2026-05-06 21:07 | 30.39373 | -100.84519 | 34981 ft | 524 kts | 116° |
| 2026-05-06 21:08 | 30.37302 | -100.76435 | 34742 ft | 522 kts | 115° |
| 2026-05-06 21:08 | 30.36260 | -100.72387 | 34070 ft | 527 kts | 115° |
| 2026-05-06 21:08 | 30.35208 | -100.68313 | 33443 ft | 527 kts | 115° |
| 2026-05-06 21:08 | 30.34164 | -100.64258 | 32941 ft | 524 kts | 115° |
| 2026-05-06 21:09 | 30.33148 | -100.60303 | 32680 ft | 515 kts | 115° |
| 2026-05-06 21:09 | 30.32131 | -100.56350 | 32284 ft | 510 kts | 115° |
| 2026-05-06 21:09 | 30.31125 | -100.52439 | 31862 ft | 505 kts | 115° |
| 2026-05-06 21:09 | 30.30126 | -100.48561 | 31436 ft | 500 kts | 115° |
| 2026-05-06 21:10 | 30.29131 | -100.44724 | 31017 ft | 495 kts | 115° |
| 2026-05-06 21:10 | 30.28138 | -100.40927 | 30594 ft | 491 kts | 115° |
| 2026-05-06 21:10 | 30.27149 | -100.37166 | 30189 ft | 487 kts | 115° |
| 2026-05-06 21:10 | 30.26172 | -100.33438 | 29741 ft | 483 kts | 115° |
| 2026-05-06 21:11 | 30.25218 | -100.29788 | 29257 ft | 479 kts | 115° |
| 2026-05-06 21:11 | 30.24262 | -100.26110 | 28776 ft | 475 kts | 115° |
| 2026-05-06 21:11 | 30.23317 | -100.22467 | 28294 ft | 472 kts | 115° |
| 2026-05-06 21:11 | 30.22374 | -100.18846 | 27820 ft | 468 kts | 115° |
| 2026-05-06 21:12 | 30.21435 | -100.15255 | 27375 ft | 465 kts | 115° |
| 2026-05-06 21:12 | 30.20500 | -100.11687 | 26934 ft | 462 kts | 115° |
| 2026-05-06 21:12 | 30.19567 | -100.08147 | 26506 ft | 459 kts | 115° |
| 2026-05-06 21:12 | 30.18640 | -100.04637 | 26103 ft | 455 kts | 115° |
| 2026-05-06 21:13 | 30.17719 | -100.01145 | 25708 ft | 452 kts | 115° |
| 2026-05-06 21:13 | 30.16752 | -99.97703 | 25321 ft | 448 kts | 117° |
| 2026-05-06 21:13 | 30.15732 | -99.94376 | 24956 ft | 444 kts | 118° |
| 2026-05-06 21:13 | 30.14653 | -99.91045 | 24593 ft | 441 kts | 119° |
| 2026-05-06 21:14 | 30.13562 | -99.87750 | 24216 ft | 438 kts | 119° |
| 2026-05-06 21:14 | 30.12478 | -99.84474 | 23852 ft | 435 kts | 118° |
| 2026-05-06 21:14 | 30.11411 | -99.81209 | 23489 ft | 433 kts | 118° |
| 2026-05-06 21:14 | 30.10365 | -99.77955 | 23056 ft | 431 kts | 118° |
| 2026-05-06 21:15 | 30.09335 | -99.74726 | 22634 ft | 428 kts | 118° |
| 2026-05-06 21:15 | 30.08312 | -99.71510 | 22214 ft | 425 kts | 117° |
| 2026-05-06 21:15 | 30.07311 | -99.68363 | 21800 ft | 422 kts | 117° |
| 2026-05-06 21:15 | 30.06304 | -99.65195 | 21380 ft | 418 kts | 117° |
| 2026-05-06 21:16 | 30.05304 | -99.62059 | 20956 ft | 415 kts | 117° |
| 2026-05-06 21:16 | 30.04310 | -99.58941 | 20545 ft | 412 kts | 117° |
| 2026-05-06 21:16 | 30.03322 | -99.55851 | 20147 ft | 409 kts | 117° |
| 2026-05-06 21:16 | 30.02340 | -99.52785 | 19745 ft | 406 kts | 117° |
| 2026-05-06 21:17 | 30.01361 | -99.49743 | 19354 ft | 403 kts | 117° |
| 2026-05-06 21:17 | 30.00391 | -99.46724 | 18968 ft | 400 kts | 117° |
| 2026-05-06 21:17 | 29.99442 | -99.43765 | 18582 ft | 397 kts | 116° |
| 2026-05-06 21:17 | 29.98484 | -99.40785 | 18201 ft | 395 kts | 116° |
| 2026-05-06 21:18 | 29.97532 | -99.37830 | 17771 ft | 392 kts | 116° |
| 2026-05-06 21:18 | 29.96586 | -99.34898 | 17352 ft | 389 kts | 116° |
| 2026-05-06 21:18 | 29.95646 | -99.31985 | 16929 ft | 386 kts | 116° |
| 2026-05-06 21:18 | 29.94709 | -99.29092 | 16510 ft | 383 kts | 116° |
| 2026-05-06 21:19 | 29.93778 | -99.26226 | 16102 ft | 380 kts | 116° |
| 2026-05-06 21:19 | 29.92857 | -99.23383 | 15720 ft | 377 kts | 116° |
| 2026-05-06 21:19 | 29.91939 | -99.20569 | 15313 ft | 374 kts | 117° |
| 2026-05-06 21:19 | 29.90988 | -99.17833 | 14918 ft | 371 kts | 118° |
| 2026-05-06 21:20 | 29.89990 | -99.15106 | 14517 ft | 369 kts | 118° |
| 2026-05-06 21:20 | 29.88964 | -99.12376 | 13899 ft | 375 kts | 119° |
| 2026-05-06 21:20 | 29.87929 | -99.09634 | 13503 ft | 371 kts | 118° |
| 2026-05-06 21:20 | 29.86916 | -99.06923 | 13180 ft | 366 kts | 118° |
| 2026-05-06 21:21 | 29.85923 | -99.04250 | 12848 ft | 360 kts | 118° |
| 2026-05-06 21:21 | 29.84948 | -99.01607 | 12506 ft | 357 kts | 117° |
| 2026-05-06 21:21 | 29.83983 | -98.98986 | 12171 ft | 354 kts | 118° |
| 2026-05-06 21:21 | 29.82815 | -98.96575 | 11841 ft | 346 kts | 131° |
| 2026-05-06 21:22 | 29.81270 | -98.94489 | 11520 ft | 341 kts | 137° |
| 2026-05-06 21:22 | 29.79696 | -98.92460 | 11196 ft | 339 kts | 136° |
| 2026-05-06 21:22 | 29.78132 | -98.90442 | 10872 ft | 337 kts | 136° |
| 2026-05-06 21:22 | 29.77040 | -98.89032 | 10640 ft | 336 kts | 136° |
| 2026-05-06 21:23 | 29.75493 | -98.87030 | 10324 ft | 334 kts | 136° |
| 2026-05-06 21:23 | 29.73948 | -98.85033 | 10000 ft | 333 kts | 135° |
| 2026-05-06 21:23 | 29.72410 | -98.83050 | 9679 ft | 332 kts | 135° |
| 2026-05-06 21:23 | 29.70876 | -98.81077 | 9350 ft | 331 kts | 135° |
| 2026-05-06 21:24 | 29.69369 | -98.79131 | 9041 ft | 329 kts | 135° |
| 2026-05-06 21:24 | 29.67829 | -98.77181 | 8431 ft | 334 kts | 136° |
| 2026-05-06 21:24 | 29.66223 | -98.75238 | 7906 ft | 327 kts | 137° |
| 2026-05-06 21:24 | 29.64684 | -98.73474 | 7768 ft | 298 kts | 144° |
| 2026-05-06 21:25 | 29.62999 | -98.72242 | 7564 ft | 283 kts | 159° |
| 2026-05-06 21:25 | 29.61979 | -98.71806 | 7262 ft | 276 kts | 167° |
| 2026-05-06 21:25 | 29.60154 | -98.71135 | 6773 ft | 274 kts | 165° |
| 2026-05-06 21:25 | 29.58960 | -98.70679 | 6474 ft | 273 kts | 165° |
| 2026-05-06 21:26 | 29.57677 | -98.70246 | 6116 ft | 267 kts | 166° |
| 2026-05-06 21:26 | 29.55954 | -98.69603 | 5991 ft | 259 kts | 162° |
| 2026-05-06 21:26 | 29.54259 | -98.68916 | 5961 ft | 256 kts | 162° |
| 2026-05-06 21:26 | 29.52600 | -98.68232 | 5957 ft | 251 kts | 163° |
| 2026-05-06 21:27 | 29.50982 | -98.67572 | 5956 ft | 242 kts | 162° |
| 2026-05-06 21:27 | 29.49388 | -98.66932 | 5744 ft | 243 kts | 162° |
| 2026-05-06 21:27 | 29.47782 | -98.66312 | 5498 ft | 244 kts | 166° |
| 2026-05-06 21:27 | 29.46091 | -98.66183 | 5262 ft | 246 kts | 190° |
| 2026-05-06 21:28 | 29.44501 | -98.66858 | 5017 ft | 244 kts | 214° |
| 2026-05-06 21:28 | 29.43214 | -98.68053 | 4775 ft | 239 kts | 221° |
| 2026-05-06 21:28 | 29.41968 | -98.69282 | 4526 ft | 234 kts | 221° |
| 2026-05-06 21:28 | 29.40734 | -98.70496 | 4287 ft | 233 kts | 221° |
| 2026-05-06 21:29 | 29.39504 | -98.71705 | 4040 ft | 232 kts | 221° |
| 2026-05-06 21:29 | 29.38299 | -98.72886 | 3850 ft | 225 kts | 221° |
| 2026-05-06 21:29 | 29.37113 | -98.74048 | 3608 ft | 224 kts | 221° |
| 2026-05-06 21:29 | 29.35927 | -98.75207 | 3366 ft | 225 kts | 220° |
| 2026-05-06 21:30 | 29.34544 | -98.76018 | 3121 ft | 226 kts | 188° |
| 2026-05-06 21:30 | 29.33016 | -98.75820 | 2991 ft | 223 kts | 152° |
| 2026-05-06 21:30 | 29.31768 | -98.74811 | 2991 ft | 223 kts | 135° |
| 2026-05-06 21:30 | 29.30658 | -98.73580 | 2980 ft | 222 kts | 124° |
| 2026-05-06 21:31 | 29.30114 | -98.71986 | 2985 ft | 213 kts | 89° |
| 2026-05-06 21:31 | 29.30273 | -98.70349 | 2980 ft | 205 kts | 75° |
| 2026-05-06 21:31 | 29.30643 | -98.68787 | 2952 ft | 202 kts | 62° |
| 2026-05-06 21:31 | 29.31450 | -98.67515 | 2954 ft | 196 kts | 40° |
| 2026-05-06 21:32 | 29.32482 | -98.66502 | 2961 ft | 195 kts | 39° |
| 2026-05-06 21:32 | 29.34469 | -98.64554 | 2966 ft | 186 kts | 39° |
| 2026-05-06 21:32 | 29.35449 | -98.63592 | 2965 ft | 185 kts | 39° |
| 2026-05-06 21:33 | 29.36428 | -98.62632 | 2961 ft | 186 kts | 39° |
| 2026-05-06 21:33 | 29.37405 | -98.61672 | 2958 ft | 184 kts | 39° |
| 2026-05-06 21:33 | 29.38374 | -98.60720 | 2960 ft | 183 kts | 39° |
| 2026-05-06 21:33 | 29.39342 | -98.59770 | 2960 ft | 183 kts | 40° |
| 2026-05-06 21:34 | 29.40308 | -98.58821 | 2956 ft | 182 kts | 39° |
| 2026-05-06 21:34 | 29.41270 | -98.57874 | 2962 ft | 181 kts | 39° |
| 2026-05-06 21:34 | 29.42219 | -98.56941 | 2965 ft | 182 kts | 39° |
| 2026-05-06 21:34 | 29.43175 | -98.56001 | 2945 ft | 174 kts | 39° |
| 2026-05-06 21:35 | 29.44033 | -98.55156 | 2818 ft | 156 kts | 39° |
| 2026-05-06 21:35 | 29.44837 | -98.54365 | 2658 ft | 150 kts | 38° |
| 2026-05-06 21:35 | 29.45618 | -98.53597 | 2451 ft | 146 kts | 38° |
| 2026-05-06 21:35 | 29.46383 | -98.52844 | 2318 ft | 144 kts | 38° |
| 2026-05-06 21:36 | 29.47141 | -98.52098 | 2128 ft | 143 kts | 38° |
| 2026-05-06 21:36 | 29.47902 | -98.51349 | 1952 ft | 144 kts | 38° |
| 2026-05-06 21:36 | 29.48661 | -98.50601 | 1769 ft | 144 kts | 37° |
| 2026-05-06 21:36 | 29.49424 | -98.49850 | 1596 ft | 145 kts | 35° |
| 2026-05-06 21:37 | 29.50169 | -98.49115 | 1400 ft | 145 kts | 38° |
| 2026-05-06 21:37 | 29.50935 | -98.48361 | 1202 ft | 146 kts | 39° |
| 2026-05-06 21:37 | 29.51700 | -98.47606 | 1006 ft | 145 kts | 40° |
| 2026-05-06 21:37 | 29.52464 | -98.46852 | 824 ft | 144 kts | 39° |
| 2026-05-06 21:38 | 29.53172 | -98.46166 | 798 ft | 110 kts | 41° |
| 2026-05-06 21:38 | 29.53524 | -98.45811 | 798 ft | 33 kts | 40° |
| 2026-05-06 21:38 | 29.53670 | -98.45687 | 798 ft | 18 kts | 9° |
| 2026-05-06 21:38 | 29.53735 | -98.45756 | 798 ft | 14 kts | 266° |
| 2026-05-06 21:39 | 29.53665 | -98.45858 | 798 ft | 16 kts | 221° |
| 2026-05-06 21:39 | 29.53555 | -98.45968 | 798 ft | 26 kts | 220° |
| 2026-05-06 21:39 | 29.53444 | -98.46075 | 798 ft | 24 kts | 220° |
| 2026-05-06 21:39 | 29.53291 | -98.46227 | 798 ft | 34 kts | 221° |
| 2026-05-06 21:40 | 29.53106 | -98.46411 | 798 ft | 31 kts | 220° |
| 2026-05-06 21:40 | 29.52932 | -98.46580 | 798 ft | 26 kts | 221° |
| 2026-05-06 21:40 | 29.52789 | -98.46721 | 798 ft | 10 kts | 219° |
| 2026-05-06 21:40 | 29.52761 | -98.46801 | 798 ft | 15 kts | 303° |
| 2026-05-06 21:41 | 29.52849 | -98.46910 | 798 ft | 22 kts | 313° |
| 2026-05-06 21:41 | 29.52920 | -98.47001 | 798 ft | 12 kts | 311° |
| 2026-05-06 21:41 | 29.52994 | -98.47094 | 798 ft | 20 kts | 313° |
| 2026-05-06 21:41 | 29.53019 | -98.47207 | 798 ft | 8 kts | 246° |
| 2026-05-06 21:42 | 29.52967 | -98.47241 | 798 ft | 10 kts | 176° |
| 2026-05-06 21:42 | 29.52931 | -98.47235 | 798 ft | 0 kts | 169° |